Aurora, New Mexico
Current Conditions -  °F | °C
As of 12:53 PM on Friday 21 Nov 2014 (Local Time) from KLVS Reporting Station
Clear Clear  
Wind Chill: 12°   Ceiling: Unl
Heat Index: 12°   Visibility: 10mi
Dew Point: -8°   Wind: 16mph
Humidity: 24%   Direction: 230°SW
Pressure: 29.98"   Gusts: 24mph
Location:  36.0243°N, 105.005°W
Report Text: KLVS 211953Z AUTO 23014G21KT 10SM CLR 12/M08 A2998 RMK AO2 RAB1858E05 SLP108 P0000 T01221078
Loading
Personal Weather Stations






























Interactive Weather Map New forecast layout! Learn more

10-Day Weather Forecast

Advertisements
Track Severe Weather on mobile